Terminal Aerodrome Forecast
Issued by NWS

Home | Current Version | Previous Version | Text Only | Print | Product List | Glossary On
Versions: 1 2 3 4 5 6 7 8 9 10 11 12 13 14 15 16 17 18 19 20
000
FTUS43 KLSX 202200 AAA
TAFUIN
TAF AMD
KUIN 202259Z 2023/2118 29009KT P6SM VCTS SCT040CB BKN100
      TEMPO 2023/2024 3SM -TSRA OVC030CB
     FM210200 30010KT P6SM BKN040
     FM211500 32013G19KT P6SM FEW040=

USA.gov is the U.S. government's official web portal to all federal, state and local government web resources and services.